Time,TemperatureF,DewpointF,PressureIn,WindDirection,WindDirectionDegrees,WindSpeedMPH,WindSpeedGustMPH,Humidity,HourlyPrecipIn,Conditions,Clouds,dailyrainin,SoftwareType,DateUTC
2013-02-26 00:00:00,30.2,17.6,29.50,NW,309,0.0,0.0,55,0.00,,,0.00,WSDL version 342,2013-02-26 05:00:00,
2013-02-26 00:01:00,29.9,17.0,29.50,WNW,296,0.0,0.0,54,0.00,,,0.00,WSDL version 342,2013-02-26 05:01:00,
2013-02-26 00:03:00,29.8,16.9,29.50,WNW,293,0.0,0.0,54,0.00,,,0.00,WSDL version 342,2013-02-26 05:03:00,
2013-02-26 00:04:00,29.6,16.6,29.50,WNW,293,0.0,0.0,54,0.00,,,0.00,WSDL version 342,2013-02-26 05:04:00,
2013-02-26 00:09:00,28.8,15.4,29.50,NW,315,0.0,0.0,53,0.00,,,0.00,WSDL version 342,2013-02-26 05:09:00,
2013-02-26 00:14:00,28.2,15.3,29.50,WNW,293,0.0,0.0,54,0.00,,,0.00,WSDL version 342,2013-02-26 05:14:00,
2013-02-26 00:19:00,27.9,15.0,29.50,NW,315,0.0,0.0,54,0.00,,,0.00,WSDL version 342,2013-02-26 05:19:00,
2013-02-26 00:24:00,27.9,15.4,29.47,NW,315,0.0,0.0,56,0.00,,,0.00,WSDL version 342,2013-02-26 05:24:00,
2013-02-26 00:29:00,27.9,15.5,29.47,WNW,293,0.0,0.0,56,0.00,,,0.00,WSDL version 342,2013-02-26 05:29:00,
2013-02-26 00:34:00,27.6,15.5,29.47,WNW,293,0.0,0.0,56,0.00,,,0.00,WSDL version 342,2013-02-26 05:34:00,
2013-02-26 00:39:00,27.3,15.6,29.47,WNW,293,0.0,0.0,57,0.00,,,0.00,WSDL version 342,2013-02-26 05:39:00,
2013-02-26 00:44:00,27.3,15.6,29.47,WNW,293,0.0,0.0,57,0.00,,,0.00,WSDL version 342,2013-02-26 05:44:00,
2013-02-26 00:49:00,27.3,15.8,29.47,WNW,293,0.0,0.0,58,0.00,,,0.00,WSDL version 342,2013-02-26 05:49:00,
2013-02-26 00:54:00,27.0,15.6,29.50,WNW,293,0.0,0.0,58,0.00,,,0.00,WSDL version 342,2013-02-26 05:54:00,
2013-02-26 00:59:00,26.9,15.1,29.50,West,281,0.0,0.0,57,0.00,,,0.00,WSDL version 342,2013-02-26 05:59:00,
2013-02-26 01:04:00,26.6,15.2,29.50,West,270,0.0,0.0,58,0.00,,,0.00,WSDL version 342,2013-02-26 06:04:00,
2013-02-26 01:09:00,26.3,15.1,29.56,West,270,0.0,0.0,59,0.00,,,0.00,WSDL version 342,2013-02-26 06:09:00,
2013-02-26 01:14:00,26.4,15.4,29.56,West,270,0.0,0.0,59,0.00,,,0.00,WSDL version 342,2013-02-26 06:14:00,
2013-02-26 01:19:00,26.1,15.1,29.56,West,277,0.0,0.0,59,0.00,,,0.00,WSDL version 342,2013-02-26 06:19:00,
2013-02-26 01:24:00,25.8,14.8,29.53,WNW,293,0.0,0.0,59,0.00,,,0.00,WSDL version 342,2013-02-26 06:24:00,
2013-02-26 01:29:00,25.4,14.7,29.53,WNW,293,0.0,0.0,60,0.00,,,0.00,WSDL version 342,2013-02-26 06:29:00,
2013-02-26 01:34:00,25.3,14.9,29.53,WNW,293,0.0,0.0,61,0.00,,,0.00,WSDL version 342,2013-02-26 06:34:00,
2013-02-26 01:39:00,25.3,15.3,29.53,WNW,293,0.0,0.0,62,0.00,,,0.00,WSDL version 342,2013-02-26 06:39:00,
2013-02-26 01:46:00,25.6,16.3,29.53,WNW,293,0.0,0.0,64,0.00,,,0.00,WSDL version 342,2013-02-26 06:46:00,
2013-02-26 01:51:00,25.7,16.5,29.53,WNW,293,0.0,0.0,65,0.00,,,0.00,WSDL version 342,2013-02-26 06:51:00,
2013-02-26 01:56:00,25.4,16.5,29.56,WNW,293,0.0,0.0,65,0.00,,,0.00,WSDL version 342,2013-02-26 06:56:00,
2013-02-26 02:01:00,25.2,16.2,29.56,NW,308,0.0,0.0,65,0.00,,,0.00,WSDL version 342,2013-02-26 07:01:00,
2013-02-26 02:06:00,25.3,16.5,29.56,WNW,293,0.0,0.0,66,0.00,,,0.00,WSDL version 342,2013-02-26 07:06:00,
2013-02-26 02:11:00,25.2,16.6,29.56,WNW,293,0.0,0.0,67,0.00,,,0.00,WSDL version 342,2013-02-26 07:11:00,
2013-02-26 02:16:00,25.2,16.9,29.56,WNW,293,0.0,0.0,68,0.00,,,0.00,WSDL version 342,2013-02-26 07:16:00,
2013-02-26 02:21:00,25.3,17.0,29.56,WNW,293,0.0,0.0,67,0.00,,,0.00,WSDL version 342,2013-02-26 07:21:00,
2013-02-26 02:26:00,25.2,16.8,29.56,WNW,293,0.0,0.0,67,0.00,,,0.00,WSDL version 342,2013-02-26 07:26:00,
2013-02-26 02:31:00,25.3,17.2,29.56,WNW,293,0.0,0.0,68,0.00,,,0.00,WSDL version 342,2013-02-26 07:31:00,
2013-02-26 02:36:00,25.3,17.3,29.56,WNW,293,0.0,0.0,68,-99.99,,,-99.99,WSDL version 342,2013-02-26 07:36:00,
2013-02-26 02:41:00,25.4,17.4,29.56,WNW,301,0.0,0.0,68,0.00,,,0.00,WSDL version 342,2013-02-26 07:41:00,
2013-02-26 02:46:00,25.8,18.2,29.56,WNW,293,0.0,0.0,70,0.00,,,0.00,WSDL version 342,2013-02-26 07:46:00,
2013-02-26 02:51:00,25.9,18.4,29.56,WNW,293,0.0,0.0,70,0.00,,,0.00,WSDL version 342,2013-02-26 07:51:00,
2013-02-26 02:56:00,25.9,18.4,29.56,NW,309,0.0,0.0,70,0.00,,,0.00,WSDL version 342,2013-02-26 07:56:00,
2013-02-26 03:01:00,26.1,18.6,29.56,NW,315,0.0,0.0,70,0.00,,,0.00,WSDL version 342,2013-02-26 08:01:00,
2013-02-26 03:06:00,26.1,18.4,29.56,NW,312,0.0,0.0,69,0.00,,,0.00,WSDL version 342,2013-02-26 08:06:00,
2013-02-26 03:11:00,25.9,18.1,29.56,NW,315,0.0,0.0,69,0.00,,,0.00,WSDL version 342,2013-02-26 08:11:00,
2013-02-26 03:16:00,26.0,18.4,29.56,NW,315,0.0,0.0,70,0.00,,,0.00,WSDL version 342,2013-02-26 08:16:00,
2013-02-26 03:21:00,26.3,19.0,29.56,NW,315,0.0,0.0,71,0.00,,,0.00,WSDL version 342,2013-02-26 08:21:00,
2013-02-26 03:26:00,26.4,19.2,29.56,NW,315,0.0,0.0,71,0.00,,,0.00,WSDL version 342,2013-02-26 08:26:00,
2013-02-26 03:31:00,26.4,19.0,29.56,NW,315,0.0,0.0,70,0.00,,,0.00,WSDL version 342,2013-02-26 08:31:00,
2013-02-26 03:36:00,26.7,19.2,29.56,NW,315,0.0,0.0,70,0.00,,,0.00,WSDL version 342,2013-02-26 08:36:00,
2013-02-26 03:41:00,26.8,19.3,29.59,NW,315,0.0,0.0,70,0.00,,,0.00,WSDL version 342,2013-02-26 08:41:00,
2013-02-26 03:46:00,26.6,19.1,29.59,NW,315,0.0,0.0,70,0.00,,,0.00,WSDL version 342,2013-02-26 08:46:00,
2013-02-26 03:52:00,26.8,19.3,29.59,NW,315,0.0,0.0,70,0.00,,,0.00,WSDL version 342,2013-02-26 08:52:00,
2013-02-26 03:57:00,27.0,19.4,29.59,NW,315,0.0,0.0,70,0.00,,,0.00,WSDL version 342,2013-02-26 08:57:00,
2013-02-26 04:02:00,27.1,19.6,29.59,NW,315,0.0,0.0,70,0.00,,,0.00,WSDL version 342,2013-02-26 09:02:00,
2013-02-26 04:07:00,27.4,20.1,29.59,NW,315,0.0,0.0,71,0.00,,,0.00,WSDL version 342,2013-02-26 09:07:00,
2013-02-26 04:12:00,27.7,20.2,29.59,NW,315,0.0,0.0,70,0.00,,,0.00,WSDL version 342,2013-02-26 09:12:00,
2013-02-26 04:17:00,27.5,19.8,29.59,NW,315,0.0,0.0,69,0.00,,,0.00,WSDL version 342,2013-02-26 09:17:00,
2013-02-26 04:22:00,27.6,19.8,29.59,NW,315,0.0,0.0,69,0.00,,,0.00,WSDL version 342,2013-02-26 09:22:00,
2013-02-26 04:27:00,27.7,19.9,29.59,NW,321,0.0,0.0,69,-99.99,,,-99.99,WSDL version 342,2013-02-26 09:27:00,
2013-02-26 04:32:00,27.9,20.2,29.59,NNW,338,0.0,0.0,70,0.00,,,0.00,WSDL version 342,2013-02-26 09:32:00,
2013-02-26 04:37:00,28.0,20.1,29.59,NNW,331,0.0,0.0,68,0.00,,,0.00,WSDL version 342,2013-02-26 09:37:00,
2013-02-26 04:42:00,27.8,19.4,29.56,NW,315,0.0,0.0,67,-99.99,,,-99.99,WSDL version 342,2013-02-26 09:42:00,
2013-02-26 04:47:00,27.7,19.3,29.56,NW,305,0.0,0.0,68,0.00,,,0.00,WSDL version 342,2013-02-26 09:47:00,
2013-02-26 04:52:00,27.9,19.7,29.59,NW,315,0.0,0.0,68,0.00,,,0.00,WSDL version 342,2013-02-26 09:52:00,
2013-02-26 04:57:00,28.3,20.4,29.59,NW,315,0.0,0.0,68,0.00,,,0.00,WSDL version 342,2013-02-26 09:57:00,
2013-02-26 05:02:00,28.3,20.1,29.59,NW,315,0.0,0.0,67,0.00,,,0.00,WSDL version 342,2013-02-26 10:02:00,
2013-02-26 05:07:00,28.3,20.0,29.59,NW,315,0.0,0.0,67,-99.99,,,-99.99,WSDL version 342,2013-02-26 10:07:00,
2013-02-26 05:13:00,28.2,19.7,29.59,NW,315,0.0,0.0,67,0.00,,,0.00,WSDL version 342,2013-02-26 10:13:00,
2013-02-26 05:18:00,28.1,19.4,29.59,NNW,335,0.0,0.0,66,0.00,,,0.00,WSDL version 342,2013-02-26 10:18:00,
2013-02-26 05:23:00,27.9,19.4,29.59,NNW,338,0.0,0.0,67,0.00,,,0.00,WSDL version 342,2013-02-26 10:23:00,
2013-02-26 05:28:00,27.9,19.4,29.59,NW,326,0.0,0.0,67,0.00,,,0.00,WSDL version 342,2013-02-26 10:28:00,
2013-02-26 05:33:00,28.1,19.8,29.59,North,349,0.0,0.0,68,0.00,,,0.00,WSDL version 342,2013-02-26 10:33:00,
2013-02-26 05:38:00,28.6,20.4,29.59,North,349,0.0,0.0,68,0.00,,,0.00,WSDL version 342,2013-02-26 10:38:00,
2013-02-26 05:43:00,28.7,20.2,29.59,North,360,0.0,0.0,67,0.00,,,0.00,WSDL version 342,2013-02-26 10:43:00,
2013-02-26 05:48:00,28.9,20.4,29.59,WNW,293,0.0,0.0,67,0.00,,,0.00,WSDL version 342,2013-02-26 10:48:00,
2013-02-26 05:53:00,28.9,20.2,29.59,WNW,289,0.0,0.0,66,0.00,,,0.00,WSDL version 342,2013-02-26 10:53:00,
2013-02-26 05:58:00,29.1,20.3,29.59,North,350,0.0,0.0,66,0.00,,,0.00,WSDL version 342,2013-02-26 10:58:00,
2013-02-26 06:03:00,29.0,20.2,29.59,NE,45,0.0,0.0,66,0.00,,,0.00,WSDL version 342,2013-02-26 11:03:00,
2013-02-26 06:08:00,29.1,20.3,29.59,North,357,0.0,0.0,66,0.00,,,0.00,WSDL version 342,2013-02-26 11:08:00,
2013-02-26 06:13:00,29.1,20.0,29.59,North,6,0.0,0.0,65,0.00,,,0.00,WSDL version 342,2013-02-26 11:13:00,
2013-02-26 06:18:00,29.3,20.2,29.59,North,349,0.0,0.0,65,0.00,,,0.00,WSDL version 342,2013-02-26 11:18:00,
2013-02-26 06:23:00,29.5,20.3,29.59,NNE,16,0.2,2.7,65,-99.99,,,-99.99,WSDL version 342,2013-02-26 11:23:00,
2013-02-26 06:28:00,29.8,20.8,29.59,North,360,0.5,2.7,65,0.00,,,0.00,WSDL version 342,2013-02-26 11:28:00,
2013-02-26 06:33:00,30.0,20.8,29.59,North,8,0.8,2.9,65,0.00,,,0.00,WSDL version 342,2013-02-26 11:33:00,
2013-02-26 06:38:00,30.2,20.7,29.59,North,360,1.1,2.9,64,0.00,,,0.00,WSDL version 342,2013-02-26 11:38:00,
2013-02-26 06:43:00,30.2,20.5,29.59,North,357,0.5,2.7,63,0.00,,,0.00,WSDL version 342,2013-02-26 11:43:00,
2013-02-26 06:48:00,30.2,20.4,29.59,North,360,0.6,2.5,63,0.00,,,0.00,WSDL version 342,2013-02-26 11:48:00,
2013-02-26 06:53:00,30.1,19.9,29.62,North,10,0.0,2.5,62,0.00,,,0.00,WSDL version 342,2013-02-26 11:53:00,
2013-02-26 06:58:00,30.0,19.7,29.62,North,360,0.0,0.0,61,0.00,,,0.00,WSDL version 342,2013-02-26 11:58:00,
2013-02-26 07:03:00,30.1,19.7,29.62,SE,138,0.0,0.0,62,0.00,,,0.00,WSDL version 342,2013-02-26 12:03:00,
2013-02-26 07:08:00,30.2,19.7,29.62,ESE,105,0.0,0.0,61,0.00,,,0.00,WSDL version 342,2013-02-26 12:08:00,
2013-02-26 07:13:00,30.3,19.8,29.62,East,90,0.0,0.0,61,-99.99,,,-99.99,WSDL version 342,2013-02-26 12:13:00,
2013-02-26 07:18:00,30.5,19.9,29.62,East,90,0.0,0.0,60,-99.99,,,-99.99,WSDL version 342,2013-02-26 12:18:00,
2013-02-26 07:23:00,30.7,20.0,29.62,North,360,0.0,1.3,61,0.00,,,0.00,WSDL version 342,2013-02-26 12:23:00,
2013-02-26 07:28:00,31.1,20.4,29.62,NNE,23,0.0,1.3,60,0.00,,,0.00,WSDL version 342,2013-02-26 12:28:00,
2013-02-26 07:33:00,31.3,20.4,29.62,East,90,0.0,0.0,60,0.00,,,0.00,WSDL version 342,2013-02-26 12:33:00,
2013-02-26 07:38:00,31.5,20.4,29.65,East,87,0.0,0.0,59,0.00,,,0.00,WSDL version 342,2013-02-26 12:38:00,
2013-02-26 07:43:00,31.9,20.6,29.65,ENE,68,0.0,0.0,59,0.00,,,0.00,WSDL version 342,2013-02-26 12:43:00,
2013-02-26 07:48:00,32.1,20.3,29.65,NE,48,0.0,0.0,59,0.00,,,0.00,WSDL version 342,2013-02-26 12:48:00,
2013-02-26 07:53:00,32.3,19.2,29.68,NNE,13,0.0,0.0,58,-99.99,,,-99.99,WSDL version 342,2013-02-26 12:53:00,
2013-02-26 07:58:00,32.5,19.3,29.68,NNE,23,0.0,0.0,58,-99.99,,,-99.99,WSDL version 342,2013-02-26 12:58:00,
2013-02-26 08:03:00,32.8,19.2,29.68,NNE,23,0.0,2.5,57,0.00,,,0.00,WSDL version 342,2013-02-26 13:03:00,
2013-02-26 08:08:00,33.0,19.4,29.68,North,3,0.0,2.5,57,0.00,,,0.00,WSDL version 342,2013-02-26 13:08:00,
2013-02-26 08:13:00,33.3,19.6,29.68,NNW,347,0.0,0.0,57,0.00,,,0.00,WSDL version 342,2013-02-26 13:13:00,
2013-02-26 08:18:00,33.6,19.7,29.68,North,11,0.0,0.0,56,0.00,,,0.00,WSDL version 342,2013-02-26 13:18:00,
2013-02-26 08:23:00,33.8,19.4,29.65,North,10,0.0,0.0,55,0.00,,,0.00,WSDL version 342,2013-02-26 13:23:00,
2013-02-26 08:28:00,34.1,19.3,29.65,NNW,329,0.0,0.0,54,0.00,,,0.00,WSDL version 342,2013-02-26 13:28:00,
2013-02-26 08:33:00,34.3,19.4,29.65,NNE,30,0.0,0.0,54,0.00,,,0.00,WSDL version 342,2013-02-26 13:33:00,
2013-02-26 08:38:00,34.4,19.3,29.68,NNE,23,0.0,0.0,53,-99.99,,,-99.99,WSDL version 342,2013-02-26 13:38:00,
2013-02-26 08:43:00,34.7,19.3,29.68,NNW,344,0.0,0.0,53,0.00,,,0.00,WSDL version 342,2013-02-26 13:43:00,
2013-02-26 08:48:00,35.0,19.4,29.68,NNW,347,0.5,2.5,52,0.00,,,0.00,WSDL version 342,2013-02-26 13:48:00,
2013-02-26 08:53:00,35.2,19.3,29.65,North,3,0.0,2.5,52,0.00,,,0.00,WSDL version 342,2013-02-26 13:53:00,
2013-02-26 08:58:00,35.5,19.5,29.65,NE,37,0.0,2.5,51,-99.99,,,-99.99,WSDL version 342,2013-02-26 13:58:00,
2013-02-26 09:03:00,35.8,19.4,29.65,North,360,0.0,0.0,51,0.00,,,0.00,WSDL version 342,2013-02-26 14:03:00,
2013-02-26 09:08:00,36.1,19.6,29.65,NNE,13,0.0,0.0,50,0.00,,,0.00,WSDL version 342,2013-02-26 14:08:00,
2013-02-26 09:13:00,36.3,19.5,29.65,NW,315,0.0,1.1,50,0.00,,,0.00,WSDL version 342,2013-02-26 14:13:00,
2013-02-26 09:18:00,36.5,19.6,29.65,NNE,20,2.2,5.4,50,0.00,,,0.00,WSDL version 342,2013-02-26 14:18:00,
2013-02-26 09:23:00,36.7,19.8,29.65,NNE,23,1.8,5.4,50,0.00,,,0.00,WSDL version 342,2013-02-26 14:23:00,
2013-02-26 09:28:00,37.0,20.1,29.65,North,6,2.4,6.0,50,0.00,,,0.00,WSDL version 342,2013-02-26 14:28:00,
2013-02-26 09:33:00,37.1,20.2,29.65,North,353,3.1,6.0,50,0.00,,,0.00,WSDL version 342,2013-02-26 14:33:00,
2013-02-26 09:38:00,37.7,20.6,29.62,North,10,1.2,4.0,50,0.00,,,0.00,WSDL version 342,2013-02-26 14:38:00,
2013-02-26 09:43:00,38.1,20.9,29.62,NE,51,1.7,4.9,50,0.00,,,0.00,WSDL version 342,2013-02-26 14:43:00,
2013-02-26 09:48:00,38.4,21.1,29.62,NNE,19,3.2,5.4,49,0.00,,,0.00,WSDL version 342,2013-02-26 14:48:00,
2013-02-26 09:53:00,38.7,20.9,29.65,ENE,68,0.8,5.4,49,0.00,,,0.00,WSDL version 342,2013-02-26 14:53:00,
2013-02-26 09:58:00,38.9,20.6,29.65,ENE,73,1.3,3.8,47,0.00,,,0.00,WSDL version 342,2013-02-26 14:58:00,
2013-02-26 10:04:00,39.7,21.6,29.65,NE,53,0.0,3.8,48,0.00,,,0.00,WSDL version 342,2013-02-26 15:04:00,
2013-02-26 10:09:00,39.8,20.7,29.65,ENE,68,0.9,3.8,46,0.00,,,0.00,WSDL version 342,2013-02-26 15:09:00,
2013-02-26 10:14:00,39.9,20.5,29.65,ENE,58,1.1,3.8,45,0.00,,,0.00,WSDL version 342,2013-02-26 15:14:00,
2013-02-26 10:19:00,40.2,20.6,29.65,ENE,77,0.6,3.1,45,0.00,,,0.00,WSDL version 342,2013-02-26 15:19:00,
2013-02-26 10:24:00,40.4,20.5,29.62,ESE,109,0.6,2.5,44,0.00,,,0.00,WSDL version 342,2013-02-26 15:24:00,
2013-02-26 10:29:00,40.7,20.5,29.62,ENE,60,0.0,2.2,44,0.00,,,0.00,WSDL version 342,2013-02-26 15:29:00,
2013-02-26 10:34:00,40.7,19.9,29.62,East,87,0.8,2.9,43,0.00,,,0.00,WSDL version 342,2013-02-26 15:34:00,
2013-02-26 10:39:00,41.0,20.0,29.65,ENE,75,2.5,3.1,42,0.00,,,0.00,WSDL version 342,2013-02-26 15:39:00,
2013-02-26 10:44:00,41.0,19.7,29.65,ENE,58,1.7,3.8,42,0.00,,,0.00,WSDL version 342,2013-02-26 15:44:00,
2013-02-26 10:49:00,41.2,19.5,29.65,NE,45,2.1,3.8,41,0.00,,,0.00,WSDL version 342,2013-02-26 15:49:00,
2013-02-26 10:55:00,41.5,19.2,29.65,ENE,64,2.3,4.3,40,0.00,,,0.00,WSDL version 342,2013-02-26 15:55:00,
2013-02-26 11:00:00,41.6,19.1,29.65,NE,56,2.3,5.6,40,-99.99,,,-99.99,WSDL version 342,2013-02-26 16:00:00,
2013-02-26 11:05:00,41.7,18.9,29.65,East,87,3.6,5.8,40,0.00,,,0.00,WSDL version 342,2013-02-26 16:05:00,
2013-02-26 11:10:00,42.2,19.6,29.62,ENE,60,1.8,5.8,40,0.00,,,0.00,WSDL version 342,2013-02-26 16:10:00,
2013-02-26 11:15:00,42.4,19.6,29.62,ENE,68,1.9,4.0,40,0.00,,,0.00,WSDL version 342,2013-02-26 16:15:00,
2013-02-26 11:20:00,42.9,19.6,29.62,ENE,70,2.5,3.8,39,0.00,,,0.00,WSDL version 342,2013-02-26 16:20:00,
2013-02-26 11:25:00,43.3,20.0,29.59,East,95,1.6,3.8,39,0.00,,,0.00,WSDL version 342,2013-02-26 16:25:00,
2013-02-26 11:30:00,43.6,19.8,29.59,East,84,2.6,4.9,38,0.00,,,0.00,WSDL version 342,2013-02-26 16:30:00,
2013-02-26 11:35:00,44.1,20.1,29.59,ENE,68,3.2,6.5,38,0.00,,,0.00,WSDL version 342,2013-02-26 16:35:00,
2013-02-26 11:40:00,43.9,19.9,29.62,East,90,3.9,6.5,38,0.00,,,0.00,WSDL version 342,2013-02-26 16:40:00,
2013-02-26 11:47:00,44.0,20.0,29.62,ENE,77,2.6,6.0,38,0.00,,,0.00,WSDL version 342,2013-02-26 16:47:00,
2013-02-26 11:52:00,44.1,19.2,29.62,NE,54,3.8,6.0,36,0.00,,,0.00,WSDL version 342,2013-02-26 16:52:00,
2013-02-26 11:57:00,44.0,17.7,29.62,NE,42,2.1,5.6,35,0.00,,,0.00,WSDL version 342,2013-02-26 16:57:00,
2013-02-26 12:03:00,44.7,18.5,29.62,NE,54,3.3,5.8,34,0.00,,,0.00,WSDL version 342,2013-02-26 17:03:00,
2013-02-26 12:08:00,44.8,17.4,29.62,NNE,32,3.4,5.8,33,0.00,,,0.00,WSDL version 342,2013-02-26 17:08:00,
2013-02-26 12:13:00,45.1,18.0,29.62,ENE,68,2.3,4.7,34,0.00,,,0.00,WSDL version 342,2013-02-26 17:13:00,
2013-02-26 12:19:00,45.5,17.8,29.62,East,79,3.0,5.8,32,0.00,,,0.00,WSDL version 342,2013-02-26 17:19:00,
2013-02-26 12:24:00,45.5,17.3,29.62,East,79,3.1,5.8,32,0.00,,,0.00,WSDL version 342,2013-02-26 17:24:00,
2013-02-26 12:30:00,45.4,17.2,29.62,NE,45,2.2,6.0,32,0.00,,,0.00,WSDL version 342,2013-02-26 17:30:00,
2013-02-26 12:36:00,45.3,17.1,29.62,ENE,68,4.0,7.4,32,0.00,,,0.00,WSDL version 342,2013-02-26 17:36:00,
2013-02-26 12:41:00,45.2,17.5,29.62,ENE,71,4.3,7.4,33,0.00,,,0.00,WSDL version 342,2013-02-26 17:41:00,
2013-02-26 12:46:00,44.9,18.5,29.62,NE,55,4.3,7.2,35,0.00,,,0.00,WSDL version 342,2013-02-26 17:46:00,
2013-02-26 12:51:00,44.4,19.3,29.62,ENE,74,4.8,7.2,37,0.00,,,0.00,WSDL version 342,2013-02-26 17:51:00,
2013-02-26 12:56:00,44.2,19.8,29.59,East,79,5.7,8.5,38,0.00,,,0.00,WSDL version 342,2013-02-26 17:56:00,
2013-02-26 13:01:00,44.2,20.1,29.59,NE,48,3.7,8.5,38,-99.99,,,-99.99,WSDL version 342,2013-02-26 18:01:00,
2013-02-26 13:06:00,44.1,20.1,29.59,NE,39,3.6,11.0,38,0.00,,,0.00,WSDL version 342,2013-02-26 18:06:00,
2013-02-26 13:12:00,44.2,20.2,29.56,ENE,64,3.2,6.0,38,0.00,,,0.00,WSDL version 342,2013-02-26 18:12:00,
2013-02-26 13:17:00,44.3,19.7,29.56,ENE,78,5.2,8.5,36,0.00,,,0.00,WSDL version 342,2013-02-26 18:17:00,
2013-02-26 13:22:00,43.8,18.0,29.56,East,86,4.5,8.5,35,0.00,,,0.00,WSDL version 342,2013-02-26 18:22:00,
2013-02-26 13:27:00,43.5,17.8,29.56,East,82,4.5,8.1,36,0.00,,,0.00,WSDL version 342,2013-02-26 18:27:00,
2013-02-26 13:32:00,43.0,18.1,29.56,NE,56,3.3,6.7,37,0.00,,,0.00,WSDL version 342,2013-02-26 18:32:00,
2013-02-26 13:37:00,43.1,19.1,29.56,NE,55,3.1,6.3,38,0.00,,,0.00,WSDL version 342,2013-02-26 18:37:00,
2013-02-26 13:42:00,42.8,19.5,29.56,ENE,64,2.0,6.3,39,0.00,,,0.00,WSDL version 342,2013-02-26 18:42:00,
2013-02-26 13:47:00,42.8,19.5,29.56,NE,56,3.0,5.4,39,0.00,,,0.00,WSDL version 342,2013-02-26 18:47:00,
2013-02-26 13:52:00,42.6,19.4,29.59,NE,51,2.8,5.4,39,0.00,,,0.00,WSDL version 342,2013-02-26 18:52:00,
2013-02-26 13:57:00,42.4,19.8,29.59,ENE,58,2.5,4.9,40,0.00,,,0.00,WSDL version 342,2013-02-26 18:57:00,
2013-02-26 14:02:00,42.3,19.7,29.59,NE,39,2.4,4.5,40,0.00,,,0.00,WSDL version 342,2013-02-26 19:02:00,
2013-02-26 14:07:00,42.2,19.6,29.56,ENE,70,3.7,5.8,40,0.00,,,0.00,WSDL version 342,2013-02-26 19:07:00,
2013-02-26 14:12:00,41.7,19.2,29.56,ENE,60,3.0,7.6,40,0.00,,,0.00,WSDL version 342,2013-02-26 19:12:00,
2013-02-26 14:17:00,41.6,19.1,29.56,ENE,62,3.1,7.6,40,0.00,,,0.00,WSDL version 342,2013-02-26 19:17:00,
2013-02-26 14:22:00,41.5,19.0,29.56,East,79,4.0,6.3,40,0.00,,,0.00,WSDL version 342,2013-02-26 19:22:00,
2013-02-26 14:27:00,41.4,18.9,29.56,ENE,62,3.3,6.3,40,0.00,,,0.00,WSDL version 342,2013-02-26 19:27:00,
2013-02-26 14:32:00,41.2,18.1,29.56,East,80,3.6,7.8,39,0.00,,,0.00,WSDL version 342,2013-02-26 19:32:00,
2013-02-26 14:37:00,41.2,18.1,29.56,ENE,68,3.9,7.8,39,-99.99,,,-99.99,WSDL version 342,2013-02-26 19:37:00,
2013-02-26 14:42:00,41.2,18.7,29.56,ENE,71,4.2,7.8,40,0.00,,,0.00,WSDL version 342,2013-02-26 19:42:00,
2013-02-26 14:47:00,41.1,18.3,29.56,East,80,4.6,7.6,39,0.00,,,0.00,WSDL version 342,2013-02-26 19:47:00,
2013-02-26 14:52:00,41.0,17.9,29.56,ENE,70,4.2,8.1,39,0.00,,,0.00,WSDL version 342,2013-02-26 19:52:00,
2013-02-26 14:57:00,41.0,17.9,29.56,East,84,5.1,8.1,39,-99.99,,,-99.99,WSDL version 342,2013-02-26 19:57:00,
2013-02-26 15:02:00,41.0,17.9,29.56,ENE,58,4.8,8.1,39,0.00,,,0.00,WSDL version 342,2013-02-26 20:02:00,
2013-02-26 15:07:00,40.9,17.8,29.53,ENE,73,4.5,7.2,39,0.00,,,0.00,WSDL version 342,2013-02-26 20:07:00,
2013-02-26 15:12:00,40.8,17.8,29.53,ENE,68,3.5,6.5,39,0.00,,,0.00,WSDL version 342,2013-02-26 20:12:00,
2013-02-26 15:17:00,40.8,17.8,29.53,ENE,64,3.1,6.5,39,0.00,,,0.00,WSDL version 342,2013-02-26 20:17:00,
2013-02-26 15:22:00,40.6,17.6,29.53,East,86,4.0,6.9,39,0.00,,,0.00,WSDL version 342,2013-02-26 20:22:00,
2013-02-26 15:27:00,40.5,17.5,29.53,ENE,65,4.3,6.9,39,0.00,,,0.00,WSDL version 342,2013-02-26 20:27:00,
2013-02-26 15:32:00,40.3,17.3,29.53,ENE,64,4.6,10.1,39,0.00,,,0.00,WSDL version 342,2013-02-26 20:32:00,
2013-02-26 15:37:00,40.2,17.2,29.56,ENE,58,3.7,10.1,39,-99.99,,,-99.99,WSDL version 342,2013-02-26 20:37:00,
2013-02-26 15:42:00,40.1,17.6,29.56,NE,53,3.2,6.3,40,0.00,,,0.00,WSDL version 342,2013-02-26 20:42:00,
2013-02-26 15:47:00,39.9,18.4,29.56,ENE,71,4.1,8.5,42,0.00,,,0.00,WSDL version 342,2013-02-26 20:47:00,
2013-02-26 15:52:00,39.7,18.6,29.53,NE,51,3.8,8.5,43,0.00,,,0.00,WSDL version 342,2013-02-26 20:52:00,
2013-02-26 15:57:00,39.5,18.8,29.53,ENE,68,2.2,5.8,43,0.00,,,0.00,WSDL version 342,2013-02-26 20:57:00,
2013-02-26 16:02:00,39.4,19.1,29.53,NE,45,4.0,6.5,44,0.00,,,0.00,WSDL version 342,2013-02-26 21:02:00,
2013-02-26 16:07:00,39.2,19.1,29.53,NE,55,4.1,8.1,44,0.00,,,0.00,WSDL version 342,2013-02-26 21:07:00,
2013-02-26 16:12:00,38.9,19.4,29.53,NE,39,3.5,8.1,45,0.00,,,0.00,WSDL version 342,2013-02-26 21:12:00,
2013-02-26 16:18:00,38.8,19.8,29.53,NE,51,2.7,5.8,46,0.00,,,0.00,WSDL version 342,2013-02-26 21:18:00,
2013-02-26 16:23:00,38.7,20.2,29.50,ENE,61,4.2,10.5,47,0.00,,,0.00,WSDL version 342,2013-02-26 21:23:00,
2013-02-26 16:28:00,38.5,20.4,29.50,NE,45,5.2,10.5,48,-99.99,,,-99.99,WSDL version 342,2013-02-26 21:28:00,
2013-02-26 16:33:00,38.5,20.8,29.50,ESE,113,3.9,6.9,49,-99.99,,,-99.99,WSDL version 342,2013-02-26 21:33:00,
2013-02-26 16:38:00,38.2,20.9,29.50,NE,41,3.8,8.7,49,-99.99,,,-99.99,WSDL version 342,2013-02-26 21:38:00,
2013-02-26 16:43:00,38.1,20.7,29.50,ENE,64,3.8,8.7,49,-99.99,,,-99.99,WSDL version 342,2013-02-26 21:43:00,
2013-02-26 16:48:00,38.0,20.5,29.50,ENE,60,5.1,6.5,49,-99.99,,,-99.99,WSDL version 342,2013-02-26 21:48:00,
2013-02-26 16:53:00,37.9,20.5,29.50,ENE,71,4.5,9.8,49,-99.99,,,-99.99,WSDL version 342,2013-02-26 21:53:00,
2013-02-26 16:58:00,37.8,19.6,29.50,ENE,72,5.8,9.8,47,-99.99,,,-99.99,WSDL version 342,2013-02-26 21:58:00,
2013-02-26 17:03:00,37.6,19.2,29.50,NE,56,4.0,8.7,47,-99.99,,,-99.99,WSDL version 342,2013-02-26 22:03:00,
2013-02-26 17:08:00,37.6,19.3,29.47,ENE,62,4.6,10.3,48,-99.99,,,-99.99,WSDL version 342,2013-02-26 22:08:00,
2013-02-26 17:13:00,37.6,20.0,29.47,ENE,76,4.9,10.3,49,-99.99,,,-99.99,WSDL version 342,2013-02-26 22:13:00,
2013-02-26 17:18:00,37.5,20.9,29.47,ENE,58,6.6,9.6,51,-99.99,,,-99.99,WSDL version 342,2013-02-26 22:18:00,
2013-02-26 17:23:00,37.4,21.3,29.47,NE,53,7.2,10.3,52,-99.99,,,-99.99,WSDL version 342,2013-02-26 22:23:00,
2013-02-26 17:28:00,37.4,21.4,29.47,ENE,62,5.3,10.3,52,-99.99,,,-99.99,WSDL version 342,2013-02-26 22:28:00,
2013-02-26 17:34:00,37.4,21.7,29.47,NE,34,5.7,8.5,53,-99.99,,,-99.99,WSDL version 342,2013-02-26 22:34:00,
2013-02-26 17:39:00,37.3,22.0,29.47,NE,56,6.4,10.1,54,-99.99,,,-99.99,WSDL version 342,2013-02-26 22:39:00,
2013-02-26 17:44:00,37.2,22.3,29.47,NE,54,6.3,10.1,55,-99.99,,,-99.99,WSDL version 342,2013-02-26 22:44:00,
2013-02-26 17:49:00,37.1,22.5,29.47,ENE,60,5.4,8.1,55,-99.99,,,-99.99,WSDL version 342,2013-02-26 22:49:00,
2013-02-26 17:54:00,37.0,22.8,29.47,ENE,58,4.9,9.8,56,-99.99,,,-99.99,WSDL version 342,2013-02-26 22:54:00,
2013-02-26 17:59:00,37.0,22.8,29.47,ENE,60,4.5,9.8,56,0.00,,,0.00,WSDL version 342,2013-02-26 22:59:00,
2013-02-26 18:04:00,37.0,22.8,29.47,ENE,62,5.1,9.6,56,0.00,,,0.00,WSDL version 342,2013-02-26 23:04:00,
2013-02-26 18:09:00,36.9,22.6,29.44,ENE,62,5.5,8.5,56,0.00,,,0.00,WSDL version 342,2013-02-26 23:09:00,
2013-02-26 18:14:00,36.9,22.6,29.44,ENE,59,6.1,8.7,56,0.00,,,0.00,WSDL version 342,2013-02-26 23:14:00,
2013-02-26 18:19:00,36.9,23.1,29.44,ENE,71,5.8,10.1,57,0.00,,,0.00,WSDL version 342,2013-02-26 23:19:00,
2013-02-26 18:24:00,36.9,23.4,29.44,ENE,61,5.3,10.1,58,-99.99,,,-99.99,WSDL version 342,2013-02-26 23:24:00,
2013-02-26 18:29:00,36.8,23.4,29.44,ENE,64,4.7,16.1,58,-99.99,,,-99.99,WSDL version 342,2013-02-26 23:29:00,
2013-02-26 18:34:00,36.7,23.3,29.44,ENE,61,5.1,16.1,58,0.00,,,0.00,WSDL version 342,2013-02-26 23:34:00,
2013-02-26 18:39:00,36.7,23.3,29.41,NE,56,6.7,12.5,58,0.00,,,0.00,WSDL version 342,2013-02-26 23:39:00,
2013-02-26 18:44:00,36.7,23.2,29.41,NE,56,6.9,12.5,57,-99.99,,,-99.99,WSDL version 342,2013-02-26 23:44:00,
2013-02-26 18:50:00,36.7,22.9,29.41,NE,41,5.5,10.7,57,-99.99,,,-99.99,WSDL version 342,2013-02-26 23:50:00,
2013-02-26 18:56:00,36.7,22.9,29.35,ENE,64,6.6,10.7,57,-99.99,,,-99.99,WSDL version 342,2013-02-26 23:56:00,
2013-02-26 19:01:00,36.6,22.6,29.35,ENE,62,5.3,9.8,56,-99.99,,,-99.99,WSDL version 342,2013-02-27 00:01:00,
2013-02-26 19:06:00,36.5,22.3,29.35,NE,54,4.6,9.8,56,-99.99,,,-99.99,WSDL version 342,2013-02-27 00:06:00,
2013-02-26 19:11:00,36.4,22.2,29.35,ENE,68,6.4,9.8,56,-99.99,,,-99.99,WSDL version 342,2013-02-27 00:11:00,
2013-02-26 19:16:00,36.3,21.3,29.35,ENE,59,6.1,9.8,53,-99.99,,,-99.99,WSDL version 342,2013-02-27 00:16:00,
2013-02-26 19:21:00,36.3,20.5,29.35,NE,45,6.4,12.1,52,-99.99,,,-99.99,WSDL version 342,2013-02-27 00:21:00,
2013-02-26 19:26:00,36.3,19.9,29.35,NE,51,8.1,13.4,51,-99.99,,,-99.99,WSDL version 342,2013-02-27 00:26:00,
2013-02-26 19:31:00,36.3,19.9,29.35,East,84,5.1,13.4,51,-99.99,,,-99.99,WSDL version 342,2013-02-27 00:31:00,
2013-02-26 19:36:00,36.3,19.9,29.35,NE,49,5.8,9.4,51,-99.99,,,-99.99,WSDL version 342,2013-02-27 00:36:00,
2013-02-26 19:41:00,36.3,19.9,29.32,East,79,6.2,8.5,51,-99.99,,,-99.99,WSDL version 342,2013-02-27 00:41:00,
2013-02-26 19:46:00,36.3,19.9,29.32,ENE,63,5.5,8.5,51,-99.99,,,-99.99,WSDL version 342,2013-02-27 00:46:00,
2013-02-26 19:51:00,36.3,19.9,29.32,NE,48,4.7,7.8,51,-99.99,,,-99.99,WSDL version 342,2013-02-27 00:51:00,
2013-02-26 19:56:00,36.2,20.3,29.32,NE,56,7.5,12.1,52,-99.99,,,-99.99,WSDL version 342,2013-02-27 00:56:00,
2013-02-26 20:01:00,36.2,20.3,29.32,ENE,68,6.5,12.1,52,-99.99,,,-99.99,WSDL version 342,2013-02-27 01:01:00,
2013-02-26 20:06:00,36.1,20.8,29.32,NE,55,5.5,10.3,54,-99.99,,,-99.99,WSDL version 342,2013-02-27 01:06:00,
2013-02-26 20:11:00,36.0,21.6,29.32,NE,45,7.3,10.3,56,-99.99,,,-99.99,WSDL version 342,2013-02-27 01:11:00,
2013-02-26 20:16:00,35.9,22.3,29.32,NE,55,6.1,11.0,58,-99.99,,,-99.99,WSDL version 342,2013-02-27 01:16:00,
2013-02-26 20:21:00,35.8,23.0,29.32,ENE,59,5.4,11.0,60,-99.99,,,-99.99,WSDL version 342,2013-02-27 01:21:00,
2013-02-26 20:26:00,35.8,23.7,29.26,NE,42,6.7,12.5,62,-99.99,,,-99.99,WSDL version 342,2013-02-27 01:26:00,
2013-02-26 20:31:00,35.7,24.5,29.26,ENE,62,6.5,12.5,64,-99.99,,,-99.99,WSDL version 342,2013-02-27 01:31:00,
2013-02-26 20:38:00,35.6,25.4,29.23,NE,56,7.0,11.9,67,-99.99,,,-99.99,WSDL version 342,2013-02-27 01:38:00,
2013-02-26 20:43:00,35.6,25.9,29.23,NE,45,8.9,12.8,68,-99.99,,,-99.99,WSDL version 342,2013-02-27 01:43:00,
2013-02-26 20:48:00,35.4,26.4,29.23,ENE,60,6.6,12.8,70,-99.99,,,-99.99,WSDL version 342,2013-02-27 01:48:00,
2013-02-26 20:53:00,35.3,26.8,29.26,ENE,65,6.2,14.3,71,-99.99,,,-99.99,WSDL version 342,2013-02-27 01:53:00,
2013-02-26 20:58:00,35.1,26.9,29.26,ENE,68,5.6,14.3,72,-99.99,,,-99.99,WSDL version 342,2013-02-27 01:58:00,
2013-02-26 21:03:00,35.1,27.0,29.26,ENE,75,6.7,10.1,72,-99.99,,,-99.99,WSDL version 342,2013-02-27 02:03:00,
2013-02-26 21:08:00,35.0,26.8,29.26,NE,50,5.4,10.1,72,-99.99,,,-99.99,WSDL version 342,2013-02-27 02:08:00,
2013-02-26 21:13:00,34.9,26.7,29.26,East,83,4.8,7.8,72,-99.99,,,-99.99,WSDL version 342,2013-02-27 02:13:00,
2013-02-26 21:19:00,34.9,26.5,29.26,East,84,5.4,8.5,71,-99.99,,,-99.99,WSDL version 342,2013-02-27 02:19:00,
2013-02-26 21:25:00,34.9,26.3,29.29,ENE,63,5.8,10.3,70,-99.99,,,-99.99,WSDL version 342,2013-02-27 02:25:00,
2013-02-26 21:30:00,35.0,26.3,29.29,NE,54,6.0,10.3,71,-99.99,,,-99.99,WSDL version 342,2013-02-27 02:30:00,
2013-02-26 21:35:00,34.8,27.0,29.29,NE,56,5.4,10.3,74,-99.99,,,-99.99,WSDL version 342,2013-02-27 02:35:00,
2013-02-26 21:40:00,34.7,27.7,29.29,ENE,73,6.0,10.3,76,-99.99,,,-99.99,WSDL version 342,2013-02-27 02:40:00,
2013-02-26 21:46:00,34.3,28.4,29.29,East,84,5.6,10.3,79,-99.99,,,-99.99,WSDL version 342,2013-02-27 02:46:00,
2013-02-26 21:52:00,34.2,29.3,29.26,ENE,73,4.5,15.2,83,-99.99,,,-99.99,WSDL version 342,2013-02-27 02:52:00,
2013-02-26 21:57:00,34.1,30.1,29.26,NNE,32,5.5,9.8,86,-99.99,,,-99.99,WSDL version 342,2013-02-27 02:57:00,
2013-02-26 22:02:00,34.0,30.4,29.26,NE,39,3.9,6.5,87,-99.99,,,-99.99,WSDL version 342,2013-02-27 03:02:00,
2013-02-26 22:07:00,33.9,30.7,29.26,NE,42,5.3,8.7,88,-99.99,,,-99.99,WSDL version 342,2013-02-27 03:07:00,
2013-02-26 22:13:00,33.8,30.9,29.26,NNE,23,4.8,8.7,89,-99.99,,,-99.99,WSDL version 342,2013-02-27 03:13:00,
2013-02-26 22:18:00,33.8,30.9,29.26,NNE,30,4.2,6.7,89,-99.99,,,-99.99,WSDL version 342,2013-02-27 03:18:00,
2013-02-26 22:24:00,33.8,31.2,29.23,NE,34,5.5,10.5,90,-99.99,,,-99.99,WSDL version 342,2013-02-27 03:24:00,
2013-02-26 22:30:00,33.6,31.3,29.23,NNE,32,5.0,10.5,91,-99.99,,,-99.99,WSDL version 342,2013-02-27 03:30:00,
2013-02-26 22:35:00,33.6,31.4,29.23,ENE,68,6.0,8.5,92,-99.99,,,-99.99,WSDL version 342,2013-02-27 03:35:00,
2013-02-26 22:41:00,33.6,31.6,29.21,NE,42,5.2,8.5,92,-99.99,,,-99.99,WSDL version 342,2013-02-27 03:41:00,
2013-02-26 22:46:00,33.6,31.6,29.21,NE,37,5.1,8.5,92,-99.99,,,-99.99,WSDL version 342,2013-02-27 03:46:00,
2013-02-26 22:51:00,33.6,31.8,29.21,NE,45,5.5,8.5,93,-99.99,,,-99.99,WSDL version 342,2013-02-27 03:51:00,
2013-02-26 22:56:00,33.6,31.9,29.21,NNE,32,4.7,13.2,93,-99.99,,,-99.99,WSDL version 342,2013-02-27 03:56:00,
2013-02-26 23:01:00,33.7,32.3,29.21,NE,45,6.8,13.2,94,-99.99,,,-99.99,WSDL version 342,2013-02-27 04:01:00,
2013-02-26 23:06:00,33.8,32.4,29.21,NE,41,4.7,12.8,94,0.09,,,0.09,WSDL version 342,2013-02-27 04:06:00,
2013-02-26 23:12:00,33.8,32.5,29.21,ENE,64,6.8,8.1,96,0.09,,,0.09,WSDL version 342,2013-02-27 04:12:00,
2013-02-26 23:17:00,33.8,32.7,29.21,NNE,30,5.0,8.1,96,-99.99,,,-99.99,WSDL version 342,2013-02-27 04:17:00,
2013-02-26 23:23:00,33.8,32.9,29.21,NE,53,5.0,7.8,97,-99.99,,,-99.99,WSDL version 342,2013-02-27 04:23:00,
2013-02-26 23:30:00,33.8,33.0,29.21,NE,53,3.6,11.9,97,-99.99,,,-99.99,WSDL version 342,2013-02-27 04:30:00,
2013-02-26 23:35:00,33.9,33.2,29.21,NE,42,6.1,11.9,98,-99.99,,,-99.99,WSDL version 342,2013-02-27 04:35:00,
2013-02-26 23:40:00,34.0,33.4,29.23,ENE,74,4.7,9.6,98,-99.99,,,-99.99,WSDL version 342,2013-02-27 04:40:00,
2013-02-26 23:45:00,34.0,33.6,29.23,NE,53,5.9,9.8,99,-99.99,,,-99.99,WSDL version 342,2013-02-27 04:45:00,
2013-02-26 23:50:00,34.1,33.8,29.23,NNE,32,4.9,9.8,99,0.21,,,0.21,WSDL version 342,2013-02-27 04:50:00,
2013-02-26 23:55:00,34.2,33.9,29.21,ENE,58,3.6,8.1,99,0.21,,,0.21,WSDL version 342,2013-02-27 04:55:00,